createdAt,value
2019-04-05T00:04:10.927Z,108
2019-04-05T00:09:41.685Z,108
2019-04-05T00:15:15.421Z,108
2019-04-05T00:20:43.209Z,108
2019-04-05T00:26:14.277Z,108
2019-04-05T00:31:45.975Z,108
2019-04-05T00:37:19.257Z,108
2019-04-05T00:42:49.254Z,108
2019-04-05T00:48:20.830Z,108
2019-04-05T00:53:52.429Z,108
2019-04-05T00:59:24.050Z,108
2019-04-05T01:04:55.674Z,108
2019-04-05T01:10:27.360Z,108
2019-04-05T01:15:58.954Z,108
2019-04-05T01:21:30.613Z,108
2019-04-05T01:27:02.222Z,108
2019-04-05T01:32:33.815Z,108
2019-04-05T01:38:05.411Z,108
2019-04-05T01:43:36.979Z,109
2019-04-05T01:49:08.586Z,109
2019-04-05T01:54:40.175Z,109
2019-04-05T02:00:11.879Z,109
2019-04-05T02:05:43.269Z,109
2019-04-05T02:11:14.809Z,109
2019-04-05T02:16:45.784Z,109
2019-04-05T02:22:16.499Z,109
2019-04-05T02:27:47.273Z,109
2019-04-05T02:33:18.106Z,109
2019-04-05T02:38:48.695Z,109
2019-04-05T02:44:19.524Z,109
2019-04-05T02:49:50.207Z,109
2019-04-05T02:55:20.999Z,109
2019-04-05T03:00:51.692Z,109
2019-04-05T03:06:22.412Z,109
2019-04-05T03:11:53.221Z,109
2019-04-05T03:17:24.725Z,109
2019-04-05T03:22:56.230Z,109
2019-04-05T03:28:26.949Z,109
2019-04-05T03:33:58.248Z,109
2019-04-05T03:39:29.618Z,109
2019-04-05T03:45:00.325Z,109
2019-04-05T03:50:31.055Z,109
2019-04-05T03:56:02.072Z,109
2019-04-05T04:01:32.849Z,109
2019-04-05T04:07:03.942Z,109
2019-04-05T04:12:34.690Z,109
2019-04-05T04:18:05.370Z,109
2019-04-05T04:23:36.074Z,109
2019-04-05T04:29:06.817Z,109
2019-04-05T04:34:37.619Z,109
2019-04-05T04:40:08.276Z,109
2019-04-05T04:45:39.074Z,109
2019-04-05T04:51:09.767Z,109
2019-04-05T04:56:40.510Z,109
2019-04-05T05:02:11.311Z,109
2019-04-05T05:07:42.029Z,109
2019-04-05T05:13:12.701Z,109
2019-04-05T05:18:45.152Z,109
2019-04-05T05:24:14.218Z,109
2019-04-05T05:29:44.855Z,109
2019-04-05T05:35:15.639Z,109
2019-04-05T05:40:46.341Z,109
2019-04-05T05:46:17.046Z,109
2019-04-05T05:51:47.739Z,109
2019-04-05T05:57:18.527Z,109
2019-04-05T06:02:49.222Z,109
2019-04-05T06:08:19.941Z,109
2019-04-05T06:13:50.761Z,109
2019-04-05T06:19:21.480Z,109
2019-04-05T06:24:52.251Z,109
2019-04-05T06:30:23.272Z,109
2019-04-05T06:35:54.856Z,109
2019-04-05T06:41:26.013Z,109
2019-04-05T06:46:57.631Z,109
2019-04-05T06:52:29.144Z,109
2019-04-05T06:58:00.981Z,109
2019-04-05T07:03:32.079Z,109
2019-04-05T07:09:03.682Z,109
2019-04-05T07:14:35.169Z,109
2019-04-05T07:20:06.592Z,109
2019-04-05T07:25:38.115Z,109
2019-04-05T07:31:09.872Z,110
2019-04-05T07:36:41.622Z,109
2019-04-05T07:42:13.537Z,110
2019-04-05T07:47:45.296Z,110
2019-04-05T07:53:17.191Z,110
2019-04-05T07:58:49.093Z,110
2019-04-05T08:04:21.005Z,110
2019-04-05T08:09:52.899Z,110
2019-04-05T08:15:24.900Z,110
2019-04-05T08:20:56.908Z,109
2019-04-05T08:26:28.889Z,110
2019-04-05T08:32:13.561Z,110
2019-04-05T08:37:32.150Z,110
2019-04-05T08:43:03.846Z,110
2019-04-05T08:48:35.685Z,110
2019-04-05T08:54:06.926Z,109
2019-04-05T08:59:32.274Z,109
2019-04-05T09:05:04.369Z,109
2019-04-05T09:10:36.598Z,109
2019-04-05T09:16:11.556Z,109
2019-04-05T09:21:41.163Z,109
2019-04-05T09:27:12.825Z,109
2019-04-05T09:32:44.390Z,109
2019-04-05T09:38:16.172Z,109
2019-04-05T09:43:48.403Z,109
2019-04-05T09:49:20.422Z,109
2019-04-05T09:54:52.658Z,109
2019-04-05T10:00:24.966Z,109
2019-04-05T10:05:56.874Z,109
2019-04-05T10:11:28.991Z,108
2019-04-05T10:17:01.428Z,99
2019-04-05T10:22:38.227Z,96
2019-04-05T10:28:10.326Z,96
2019-04-05T10:33:42.575Z,95
2019-04-05T10:39:14.565Z,96
2019-04-05T10:44:47.004Z,95
2019-04-05T10:50:18.809Z,92
2019-04-05T10:55:51.087Z,95
2019-04-05T11:01:23.582Z,93
2019-04-05T11:06:56.184Z,93
2019-04-05T11:12:28.740Z,93
2019-04-05T11:18:04.395Z,94
2019-04-05T11:23:34.465Z,92
2019-04-05T11:29:07.200Z,92
2019-04-05T11:34:39.971Z,91
2019-04-05T11:40:12.869Z,91
2019-04-05T11:45:45.975Z,89
2019-04-05T11:51:19.235Z,89
2019-04-05T11:56:52.590Z,86
2019-04-05T12:02:25.989Z,86
2019-04-05T12:08:01.738Z,86
2019-04-05T12:13:32.639Z,85
2019-04-05T12:19:06.215Z,85
2019-04-05T12:24:39.636Z,81
2019-04-05T12:30:13.390Z,82
2019-04-05T12:35:47.225Z,80
2019-04-05T12:41:20.665Z,82
2019-04-05T12:46:53.801Z,83
2019-04-05T12:52:27.509Z,85
2019-04-05T12:57:59.932Z,83
2019-04-05T13:03:32.763Z,79
2019-04-05T13:09:06.926Z,79
2019-04-05T13:14:38.209Z,80
2019-04-05T13:20:10.829Z,80
2019-04-05T13:25:43.469Z,78
2019-04-05T13:31:18.130Z,79
2019-04-05T13:36:48.820Z,76
2019-04-05T13:42:21.484Z,76
2019-04-05T13:47:53.963Z,75
2019-04-05T13:53:26.509Z,76
2019-04-05T13:58:59.212Z,77
2019-04-05T14:04:32.062Z,73
2019-04-05T14:10:05.675Z,72
2019-04-05T14:15:41.765Z,69
2019-04-05T14:21:13.376Z,71
2019-04-05T14:26:46.787Z,75
2019-04-05T14:32:21.598Z,71
2019-04-05T14:37:55.064Z,69
2019-04-05T14:43:27.721Z,68
2019-04-05T14:49:02.270Z,73
2019-04-05T14:54:36.928Z,72
2019-04-05T15:00:14.547Z,71
2019-04-05T15:05:46.797Z,71
2019-04-05T15:11:21.288Z,74
2019-04-05T15:16:55.514Z,76
2019-04-05T15:22:29.567Z,74
2019-04-05T15:28:04.114Z,77
2019-04-05T15:33:37.352Z,79
2019-04-05T15:39:10.867Z,78
2019-04-05T15:44:44.000Z,74
2019-04-05T15:50:17.342Z,76
2019-04-05T15:55:50.504Z,75
2019-04-05T16:01:23.605Z,76
2019-04-05T16:06:56.663Z,77
2019-04-05T16:12:29.483Z,77
2019-04-05T16:18:02.320Z,78
2019-04-05T16:23:34.932Z,80
2019-04-05T16:29:07.670Z,79
2019-04-05T16:34:39.887Z,78
2019-04-05T16:40:12.508Z,78
2019-04-05T16:45:44.812Z,80
2019-04-05T16:51:17.525Z,81
2019-04-05T16:56:50.065Z,80
2019-04-05T17:02:22.207Z,80
2019-04-05T17:07:53.961Z,80
2019-04-05T17:13:25.638Z,80
2019-04-05T17:18:57.299Z,82
2019-04-05T17:24:28.967Z,85
2019-04-05T17:30:02.068Z,85
2019-04-05T17:35:32.516Z,84
2019-04-05T17:41:04.190Z,84
2019-04-05T17:46:35.850Z,85
2019-04-05T17:52:08.193Z,87
2019-04-05T17:57:38.779Z,87
2019-04-05T18:03:10.186Z,87
2019-04-05T18:08:41.585Z,87
2019-04-05T18:14:13.835Z,88
2019-04-05T18:19:44.109Z,91
2019-04-05T18:25:15.340Z,90
2019-04-05T18:30:46.552Z,94
2019-04-05T18:36:17.754Z,94
2019-04-05T18:41:48.864Z,92
2019-04-05T18:47:19.971Z,91
2019-04-05T18:52:51.066Z,92
2019-04-05T18:58:22.318Z,92
2019-04-05T19:03:53.198Z,90
2019-04-05T19:09:24.401Z,90
2019-04-05T19:14:57.642Z,90
2019-04-05T19:20:26.623Z,91
2019-04-05T19:25:57.740Z,91
2019-04-05T19:53:33.043Z,94
2019-04-05T19:59:04.012Z,93
2019-04-05T20:04:35.104Z,96
2019-04-05T20:10:06.037Z,94
2019-04-05T20:15:37.057Z,95
2019-04-05T20:21:07.949Z,95
2019-04-05T20:26:38.951Z,97
2019-04-05T20:32:09.973Z,99
2019-04-05T20:37:40.916Z,99
2019-04-05T20:43:11.796Z,98
2019-04-05T20:48:42.685Z,97
2019-04-05T20:54:20.015Z,95
2019-04-05T20:59:44.536Z,95
2019-04-05T21:05:24.634Z,95
2019-04-05T21:10:46.421Z,98
2019-04-05T21:16:17.344Z,98
2019-04-05T21:21:48.287Z,96
2019-04-05T21:27:19.267Z,95
2019-04-05T21:32:50.154Z,96
2019-04-05T21:38:21.193Z,98
2019-04-05T21:43:52.122Z,100
2019-04-05T21:49:22.994Z,101
2019-04-05T21:54:53.972Z,101
2019-04-05T22:00:24.907Z,101
2019-04-05T22:05:55.833Z,102
2019-04-05T22:11:27.823Z,102
2019-04-05T22:16:57.620Z,102
2019-04-05T22:22:28.444Z,100
2019-04-05T22:27:59.353Z,98
2019-04-05T22:33:30.274Z,100
2019-04-05T22:39:01.141Z,100
2019-04-05T22:44:38.028Z,102
2019-04-05T22:50:02.932Z,104
2019-04-05T22:55:33.735Z,104
2019-04-05T23:01:04.664Z,104
2019-04-05T23:06:35.467Z,104
2019-04-05T23:12:07.006Z,104
2019-04-05T23:17:37.088Z,103
2019-04-05T23:23:07.979Z,103
2019-04-05T23:28:38.792Z,103
2019-04-05T23:34:09.614Z,104
2019-04-05T23:39:41.293Z,103
2019-04-05T23:45:11.310Z,104
2019-04-05T23:50:42.113Z,103
2019-04-05T23:56:12.886Z,103
